Time;durP1;ratioP1;P1;durP2;ratioP2;P2;SDS_P1;SDS_P2;PMS_P1;PMS_P2;Temp;Humidity;BMP_temperature;BMP_pressure;BME280_temperature;BME280_humidity;BME280_pressure;Samples;Min_cycle;Max_cycle;Signal;HPM_P1;HPM_P2
2023/11/12 00:03:37;;;;;;;;;;;;;;;17.31;49.57;98702.38;10327332;28;860;-73
2023/11/12 00:08:33;;;;;;;;;;;;;;;17.31;49.15;98702.38;10326387;28;1893;-73
2023/11/12 00:13:29;;;;;;;;;;;;;;;17.31;49.46;98705.03;10326293;28;964;-72
2023/11/12 00:18:26;;;;;;;;;;;;;;;17.30;49.42;98698.91;10326105;28;907;-72
2023/11/12 00:23:24;;;;;;;;;;;;;;;17.28;49.34;98695.50;10326101;28;882;-73
2023/11/12 00:28:20;;;;;;;;;;;;;;;17.25;49.64;98690.44;10325042;28;1898;-72
2023/11/12 00:33:16;;;;;;;;;;;;;;;17.27;49.32;98691.19;10325580;28;1450;-72
2023/11/12 00:38:12;;;;;;;;;;;;;;;17.26;49.42;98684.22;10325511;28;861;-72
2023/11/12 00:43:08;;;;;;;;;;;;;;;17.26;49.33;98681.56;10325524;28;788;-73
2023/11/12 00:48:03;;;;;;;;;;;;;;;17.23;49.35;98673.88;10326184;28;1902;-74
2023/11/12 00:52:59;;;;;;;;;;;;;;;17.24;49.42;98680.84;10325338;28;838;-73
2023/11/12 00:57:55;;;;;;;;;;;;;;;17.25;49.50;98681.69;10325979;28;862;-73
2023/11/12 01:02:51;;;;;;;;;;;;;;;17.24;49.41;98675.56;10325770;28;769;-73
2023/11/12 01:07:47;;;;;;;;;;;;;;;17.24;49.54;98672.94;10325150;28;1890;-73
2023/11/12 01:12:43;;;;;;;;;;;;;;;17.23;49.61;98670.38;10325096;28;885;-72
2023/11/12 01:17:39;;;;;;;;;;;;;;;17.24;49.53;98667.69;10324841;28;828;-72
2023/11/12 01:22:35;;;;;;;;;;;;;;;17.24;49.40;98657.13;10324680;28;873;-73
2023/11/12 01:27:30;;;;;;;;;;;;;;;17.23;49.51;98660.69;10325084;28;1973;-73
2023/11/12 01:32:26;;;;;;;;;;;;;;;17.22;49.44;98653.75;10325233;28;1808;-73
2023/11/12 01:37:22;;;;;;;;;;;;;;;17.21;49.64;98646.78;10324782;28;948;-73
2023/11/12 01:42:19;;;;;;;;;;;;;;;17.22;49.62;98637.94;10331797;28;855;-72
2023/11/12 01:47:14;;;;;;;;;;;;;;;17.21;49.57;98641.53;10332351;28;1909;-72
2023/11/12 01:52:11;;;;;;;;;;;;;;;17.21;49.50;98638.03;10332224;28;859;-72
2023/11/12 01:57:07;;;;;;;;;;;;;;;17.19;49.63;98632.03;10331998;28;898;-72
2023/11/12 02:02:03;;;;;;;;;;;;;;;17.20;49.65;98625.81;10331437;28;972;-72
2023/11/12 02:06:59;;;;;;;;;;;;;;;17.22;49.57;98623.94;10331388;28;1893;-72
2023/11/12 02:11:55;;;;;;;;;;;;;;;17.20;49.39;98628.44;10330918;28;871;-72
2023/11/12 02:16:51;;;;;;;;;;;;;;;17.18;49.54;98631.16;10330696;28;1030;-72
2023/11/12 02:21:47;;;;;;;;;;;;;;;17.17;49.47;98628.63;10331165;28;914;-72
2023/11/12 02:26:43;;;;;;;;;;;;;;;17.18;49.36;98643.47;10331887;28;1894;-73
2023/11/12 02:31:39;;;;;;;;;;;;;;;17.17;49.69;98644.41;10330443;28;1297;-73
2023/11/12 02:36:35;;;;;;;;;;;;;;;17.15;49.60;98643.66;10329296;28;834;-73
2023/11/12 02:41:31;;;;;;;;;;;;;;;17.15;49.74;98646.28;10329888;28;771;-73
2023/11/12 02:46:27;;;;;;;;;;;;;;;17.12;49.71;98644.69;10330738;28;1971;-72
2023/11/12 02:51:23;;;;;;;;;;;;;;;17.12;49.76;98636.78;10328189;28;901;-72
2023/11/12 02:56:18;;;;;;;;;;;;;;;17.13;49.59;98637.63;10329278;28;795;-72
2023/11/12 03:01:14;;;;;;;;;;;;;;;17.11;49.62;98640.38;10329705;28;886;-72
2023/11/12 03:06:11;;;;;;;;;;;;;;;17.10;49.56;98636.00;10329274;28;1893;-72
2023/11/12 03:11:09;;;;;;;;;;;;;;;17.10;49.54;98633.38;10329229;28;912;-72
2023/11/12 03:16:05;;;;;;;;;;;;;;;17.07;49.62;98631.78;10328409;28;881;-72
2023/11/12 03:21:01;;;;;;;;;;;;;;;17.05;49.45;98624.91;10328874;28;977;-72
2023/11/12 03:25:57;;;;;;;;;;;;;;;17.01;49.48;98624.25;10328543;28;1960;-72
2023/11/12 03:30:53;;;;;;;;;;;;;;;16.97;49.53;98621.88;10328636;28;1375;-72
2023/11/12 03:35:49;;;;;;;;;;;;;;;16.96;49.49;98617.56;10328142;28;868;-73
2023/11/12 03:40:45;;;;;;;;;;;;;;;16.94;49.42;98611.53;10327427;28;877;-73
2023/11/12 03:45:41;;;;;;;;;;;;;;;16.90;49.66;98618.75;10327781;28;1914;-72
2023/11/12 03:50:37;;;;;;;;;;;;;;;16.91;49.65;98611.72;10327675;28;790;-72
2023/11/12 03:55:33;;;;;;;;;;;;;;;16.96;49.63;98614.91;10326883;28;778;-72
2023/11/12 04:00:29;;;;;;;;;;;;;;;16.98;49.76;98618.31;10326709;28;811;-72
2023/11/12 04:05:25;;;;;;;;;;;;;;;17.02;49.59;98617.19;10325512;28;1964;-72
2023/11/12 04:10:21;;;;;;;;;;;;;;;17.04;49.63;98613.53;10325695;28;1061;-72
2023/11/12 04:15:17;;;;;;;;;;;;;;;17.06;49.50;98613.44;10326935;28;827;-72
2023/11/12 04:20:14;;;;;;;;;;;;;;;17.05;49.41;98615.22;10326096;28;900;-72
2023/11/12 04:25:10;;;;;;;;;;;;;;;17.07;49.54;98613.34;10325901;28;1897;-72
2023/11/12 04:30:07;;;;;;;;;;;;;;;17.08;49.50;98612.44;10325523;28;1255;-72
2023/11/12 04:35:02;;;;;;;;;;;;;;;17.10;49.32;98620.22;10325756;28;940;-72
2023/11/12 04:40:03;;;;;;;;;;;;;;;17.11;49.24;98629.84;10325621;28;896;-72
2023/11/12 04:44:59;;;;;;;;;;;;;;;17.12;49.41;98622.78;10326674;28;793;-73
2023/11/12 04:49:55;;;;;;;;;;;;;;;17.18;49.36;98628.50;10325492;28;1906;-73
2023/11/12 04:54:51;;;;;;;;;;;;;;;17.20;49.31;98628.44;10324735;28;1040;-72
2023/11/12 04:59:47;;;;;;;;;;;;;;;17.22;49.10;98629.19;10324685;28;921;-72
2023/11/12 05:04:42;;;;;;;;;;;;;;;17.27;49.25;98633.25;10324525;28;857;-72
2023/11/12 05:09:38;;;;;;;;;;;;;;;17.28;49.18;98632.31;10325009;28;1902;-72
2023/11/12 05:14:34;;;;;;;;;;;;;;;17.32;48.99;98630.34;10328324;28;889;-73
2023/11/12 05:19:30;;;;;;;;;;;;;;;17.37;48.88;98625.66;10332969;28;795;-72
2023/11/12 05:24:26;;;;;;;;;;;;;;;17.39;49.05;98629.03;10332635;28;941;-74
2023/11/12 05:29:22;;;;;;;;;;;;;;;17.45;48.74;98627.84;10332543;28;1955;-73
2023/11/12 05:34:18;;;;;;;;;;;;;;;17.48;48.88;98635.56;10332179;28;1005;-72
2023/11/12 05:39:15;;;;;;;;;;;;;;;17.45;49.06;98633.13;10331863;28;873;-73
2023/11/12 05:44:10;;;;;;;;;;;;;;;17.48;49.02;98636.41;10331695;28;913;-73
2023/11/12 05:49:06;;;;;;;;;;;;;;;17.50;49.04;98634.53;10331500;28;1961;-72
2023/11/12 05:54:02;;;;;;;;;;;;;;;17.49;48.92;98632.81;10331996;28;845;-73
2023/11/12 05:58:58;;;;;;;;;;;;;;;17.47;49.20;98641.75;10331172;28;842;-72
2023/11/12 06:03:55;;;;;;;;;;;;;;;17.51;48.97;98643.28;10331369;28;841;-72
2023/11/12 06:08:51;;;;;;;;;;;;;;;17.52;49.04;98642.31;10330891;28;1898;-72
2023/11/12 06:13:47;;;;;;;;;;;;;;;17.51;48.92;98648.53;10330757;28;861;-75
2023/11/12 06:18:43;;;;;;;;;;;;;;;17.52;49.03;98644.97;10330579;28;834;-72
2023/11/12 06:23:43;;;;;;;;;;;;;;;17.55;48.93;98644.78;10330374;28;916;-73
2023/11/12 06:28:39;;;;;;;;;;;;;;;17.55;49.16;98649.19;10328687;28;1965;-72
2023/11/12 06:33:35;;;;;;;;;;;;;;;17.49;49.65;98651.25;10330033;28;972;-73
2023/11/12 06:38:31;;;;;;;;;;;;;;;17.49;49.40;98653.91;10330225;28;969;-72
2023/11/12 06:43:27;;;;;;;;;;;;;;;17.52;49.44;98655.50;10329673;28;883;-73
2023/11/12 06:48:24;;;;;;;;;;;;;;;17.49;49.60;98645.16;10329922;28;1913;-74
2023/11/12 06:53:20;;;;;;;;;;;;;;;17.55;49.47;98660.59;10329309;28;935;-72
2023/11/12 06:58:16;;;;;;;;;;;;;;;17.51;49.47;98657.28;10328455;28;904;-72
2023/11/12 07:03:11;;;;;;;;;;;;;;;17.59;49.38;98669.16;10328207;28;1003;-72
2023/11/12 07:08:08;;;;;;;;;;;;;;;17.56;49.46;98680.75;10328995;28;1898;-71
2023/11/12 07:13:05;;;;;;;;;;;;;;;17.54;49.40;98687.88;10328261;28;1012;-71
2023/11/12 07:18:01;;;;;;;;;;;;;;;17.58;49.42;98681.50;10328159;28;878;-71
2023/11/12 07:22:56;;;;;;;;;;;;;;;17.60;49.32;98689.28;10328053;28;864;-71
2023/11/12 07:27:52;;;;;;;;;;;;;;;17.57;49.54;98694.75;10327760;28;1965;-75
2023/11/12 07:32:48;;;;;;;;;;;;;;;17.40;49.75;98693.13;10328523;28;1308;-76
2023/11/12 07:37:44;;;;;;;;;;;;;;;17.35;49.82;98701.28;10327097;28;789;-75
2023/11/12 07:42:40;;;;;;;;;;;;;;;17.30;49.99;98705.97;10328025;28;850;-77
2023/11/12 07:47:36;;;;;;;;;;;;;;;17.28;50.10;98708.69;10327564;28;1964;-75
2023/11/12 07:52:32;;;;;;;;;;;;;;;17.29;49.89;98718.28;10326205;28;1127;-75
2023/11/12 07:57:28;;;;;;;;;;;;;;;17.33;49.63;98718.13;10326577;28;830;-75
2023/11/12 08:02:24;;;;;;;;;;;;;;;17.30;49.99;98719.13;10326462;28;1016;-75
2023/11/12 08:07:20;;;;;;;;;;;;;;;17.31;49.67;98711.13;10326357;28;1890;-76
2023/11/12 08:12:16;;;;;;;;;;;;;;;17.29;49.80;98723.56;10326113;28;874;-76
2023/11/12 08:17:12;;;;;;;;;;;;;;;17.26;49.93;98723.72;10326040;28;773;-75
2023/11/12 08:22:08;;;;;;;;;;;;;;;17.28;49.68;98727.13;10325835;28;798;-76
2023/11/12 08:27:04;;;;;;;;;;;;;;;17.28;49.80;98734.19;10326308;28;1898;-76
2023/11/12 08:32:00;;;;;;;;;;;;;;;17.24;49.55;98736.16;10322901;28;1250;-76
2023/11/12 08:36:56;;;;;;;;;;;;;;;17.27;49.75;98743.88;10324404;28;965;-76
2023/11/12 08:41:52;;;;;;;;;;;;;;;17.45;49.34;98749.88;10325315;28;798;-70
2023/11/12 08:46:48;;;;;;;;;;;;;;;17.55;49.48;98751.97;10324407;28;1910;-70
2023/11/12 08:51:44;;;;;;;;;;;;;;;17.62;49.42;98761.22;10324488;28;926;-70
2023/11/12 08:56:40;;;;;;;;;;;;;;;17.60;49.47;98758.66;10324258;28;881;-69
2023/11/12 09:01:36;;;;;;;;;;;;;;;17.61;49.47;98770.06;10324183;28;889;-69
2023/11/12 09:06:32;;;;;;;;;;;;;;;17.64;49.33;98770.72;10324647;28;1894;-69
2023/11/12 09:11:28;;;;;;;;;;;;;;;17.62;49.37;98761.22;10325038;28;1101;-69
2023/11/12 09:16:23;;;;;;;;;;;;;;;17.61;49.38;98765.63;10324613;28;924;-70
2023/11/12 09:21:19;;;;;;;;;;;;;;;17.67;49.21;98777.59;10325533;28;803;-74
2023/11/12 09:26:15;;;;;;;;;;;;;;;17.66;49.15;98776.75;10324523;28;1965;-69
2023/11/12 09:31:11;;;;;;;;;;;;;;;17.66;49.32;98781.19;10323603;28;1140;-69
2023/11/12 09:36:07;;;;;;;;;;;;;;;17.64;49.34;98775.16;10323716;28;861;-71
2023/11/12 09:41:03;;;;;;;;;;;;;;;17.66;49.14;98782.03;10324162;28;861;-70
2023/11/12 09:45:59;;;;;;;;;;;;;;;17.67;49.15;98773.19;10324758;28;1914;-70
2023/11/12 09:50:55;;;;;;;;;;;;;;;17.70;48.92;98775.63;10324554;28;814;-70
2023/11/12 09:55:51;;;;;;;;;;;;;;;17.73;48.78;98780.72;10324265;28;879;-70
2023/11/12 10:00:47;;;;;;;;;;;;;;;17.72;48.94;98779.03;10326659;28;891;-69
2023/11/12 10:05:43;;;;;;;;;;;;;;;17.79;49.00;98773.38;10331011;28;1889;-69
2023/11/12 10:10:41;;;;;;;;;;;;;;;17.79;48.97;98762.84;10330889;28;867;-70
2023/11/12 10:15:37;;;;;;;;;;;;;;;17.76;49.03;98758.59;10330619;28;875;-70
2023/11/12 10:20:33;;;;;;;;;;;;;;;17.78;49.03;98754.09;10330361;28;879;-69
2023/11/12 10:25:29;;;;;;;;;;;;;;;17.73;48.91;98750.88;10330840;28;1898;-70
2023/11/12 10:30:25;;;;;;;;;;;;;;;17.75;48.79;98752.47;10330966;28;1367;-70
2023/11/12 10:35:21;;;;;;;;;;;;;;;17.79;48.78;98750.56;10329962;28;826;-70
2023/11/12 10:40:17;;;;;;;;;;;;;;;17.82;48.67;98742.47;10330467;28;789;-69
2023/11/12 10:45:12;;;;;;;;;;;;;;;17.79;48.83;98745.31;10329742;28;891;-70
2023/11/12 10:50:08;;;;;;;;;;;;;;;17.84;48.93;98753.78;10329934;28;1972;-70
2023/11/12 10:55:05;;;;;;;;;;;;;;;17.88;48.65;98749.16;10329393;28;770;-70
2023/11/12 11:00:01;;;;;;;;;;;;;;;17.85;48.83;98738.81;10329002;28;886;-70
2023/11/12 11:04:57;;;;;;;;;;;;;;;17.86;48.89;98743.97;10328840;28;859;-71
2023/11/12 11:09:53;;;;;;;;;;;;;;;17.90;48.69;98744.66;10329889;28;1957;-70
2023/11/12 11:14:49;;;;;;;;;;;;;;;17.93;48.69;98741.84;10327852;28;872;-70
2023/11/12 11:19:45;;;;;;;;;;;;;;;17.91;48.91;98730.53;10328204;28;902;-69
2023/11/12 11:24:40;;;;;;;;;;;;;;;17.93;48.69;98734.75;10327435;28;897;-68
2023/11/12 11:29:36;;;;;;;;;;;;;;;17.94;48.63;98739.09;10327693;28;1882;-69
2023/11/12 11:34:32;;;;;;;;;;;;;;;17.92;48.90;98743.63;10328218;28;826;-70
2023/11/12 11:39:28;;;;;;;;;;;;;;;17.99;48.77;98749.38;10327394;28;786;-69
2023/11/12 11:44:24;;;;;;;;;;;;;;;18.02;48.98;98743.91;10327764;28;848;-70
2023/11/12 11:49:20;;;;;;;;;;;;;;;18.04;48.70;98738.53;10327078;28;1917;-72
2023/11/12 11:54:16;;;;;;;;;;;;;;;18.14;48.62;98739.69;10326822;28;960;-70
2023/11/12 11:59:12;;;;;;;;;;;;;;;18.31;48.43;98733.38;10326819;28;868;-70
2023/11/12 12:04:09;;;;;;;;;;;;;;;18.22;48.52;98741.88;10326512;28;870;-76
2023/11/12 12:09:08;;;;;;;;;;;;;;;17.93;49.21;98739.19;10326113;28;1898;-76
2023/11/12 12:14:04;;;;;;;;;;;;;;;17.93;49.35;98749.75;10326876;28;853;-75
2023/11/12 12:19:01;;;;;;;;;;;;;;;17.93;49.24;98760.28;10326502;28;1510;-76
2023/11/12 12:23:56;;;;;;;;;;;;;;;17.93;49.00;98749.75;10325040;28;839;-76
2023/11/12 12:28:52;;;;;;;;;;;;;;;17.99;48.78;98754.63;10326243;28;1955;-75
2023/11/12 12:33:48;;;;;;;;;;;;;;;18.05;48.71;98761.31;10325571;28;1222;-77
2023/11/12 12:38:44;;;;;;;;;;;;;;;18.08;48.53;98759.38;10325517;28;802;-75
2023/11/12 12:43:40;;;;;;;;;;;;;;;18.10;48.55;98768.06;10321370;28;1112;-76
2023/11/12 12:48:36;;;;;;;;;;;;;;;18.33;48.23;98771.91;10325243;28;1922;-75
2023/11/12 12:53:32;;;;;;;;;;;;;;;18.55;47.65;98779.38;10324743;28;1017;-75
2023/11/12 12:58:28;;;;;;;;;;;;;;;18.62;47.60;98780.66;10324624;28;945;-75
2023/11/12 13:03:30;;;;;;;;;;;;;;;18.70;47.35;98776.72;10324066;28;841;-74
2023/11/12 13:08:26;;;;;;;;;;;;;;;18.76;47.43;98779.03;10325101;28;1984;-75
2023/11/12 13:13:24;;;;;;;;;;;;;;;18.76;47.42;98789.59;10325255;28;842;-75
2023/11/12 13:18:20;;;;;;;;;;;;;;;18.78;47.43;98796.44;10324703;28;846;-75
2023/11/12 13:23:17;;;;;;;;;;;;;;;18.87;47.19;98797.66;10324941;28;853;-75
2023/11/12 13:28:16;;;;;;;;;;;;;;;18.90;47.41;98801.91;10323822;28;1956;-75
2023/11/12 13:33:13;;;;;;;;;;;;;;;18.88;47.19;98795.88;10324652;28;1160;-75
2023/11/12 13:38:10;;;;;;;;;;;;;;;18.71;47.59;98794.25;10330485;28;895;-75
2023/11/12 13:43:06;;;;;;;;;;;;;;;18.61;48.01;98792.19;10332126;28;893;-75
2023/11/12 13:48:03;;;;;;;;;;;;;;;18.53;48.16;98793.59;10331216;28;1971;-75
2023/11/12 13:53:00;;;;;;;;;;;;;;;18.47;48.36;98796.59;10331332;28;986;-75
2023/11/12 13:57:57;;;;;;;;;;;;;;;18.41;48.60;98797.81;10330801;28;989;-75
2023/11/12 14:02:53;;;;;;;;;;;;;;;18.41;48.43;98792.53;10331958;28;869;-75
2023/11/12 14:07:50;;;;;;;;;;;;;;;18.38;48.37;98788.31;10330430;28;1894;-75
2023/11/12 14:12:46;;;;;;;;;;;;;;;18.35;48.41;98793.78;10330659;28;794;-75
2023/11/12 14:17:43;;;;;;;;;;;;;;;18.39;48.59;98789.16;10330332;28;901;-75
2023/11/12 14:22:40;;;;;;;;;;;;;;;18.43;48.54;98789.84;10330498;28;992;-75
2023/11/12 14:27:37;;;;;;;;;;;;;;;18.44;48.43;98795.00;10330645;28;1957;-75
2023/11/12 14:32:34;;;;;;;;;;;;;;;18.53;48.20;98790.97;10330573;28;1132;-75
2023/11/12 14:37:30;;;;;;;;;;;;;;;18.54;48.33;98803.22;10329674;28;981;-75
2023/11/12 14:42:26;;;;;;;;;;;;;;;18.45;48.47;98795.88;10330624;28;1270;-75
2023/11/12 14:47:21;;;;;;;;;;;;;;;18.39;48.64;98797.06;10328239;28;1972;-75
2023/11/12 14:52:17;;;;;;;;;;;;;;;18.37;48.78;98805.09;10329088;28;905;-75
2023/11/12 14:57:14;;;;;;;;;;;;;;;18.37;48.86;98817.44;10330074;28;806;-76
2023/11/12 15:02:11;;;;;;;;;;;;;;;18.33;48.74;98813.28;10329808;28;937;-75
2023/11/12 15:07:09;;;;;;;;;;;;;;;18.33;48.67;98823.81;10329552;28;1905;-75
2023/11/12 15:12:04;;;;;;;;;;;;;;;18.34;48.78;98828.19;10328865;28;865;-73
2023/11/12 15:17:02;;;;;;;;;;;;;;;18.31;48.97;98828.34;10328794;28;836;-75
2023/11/12 15:21:58;;;;;;;;;;;;;;;18.26;48.94;98811.94;10328347;28;845;-75
2023/11/12 15:26:55;;;;;;;;;;;;;;;18.30;48.98;98818.75;10328240;28;1910;-75
2023/11/12 15:31:50;;;;;;;;;;;;;;;18.31;49.04;98828.34;10326317;28;1180;-75
2023/11/12 15:36:47;;;;;;;;;;;;;;;18.27;49.14;98822.41;10327491;28;885;-75
2023/11/12 15:41:44;;;;;;;;;;;;;;;18.30;49.23;98813.47;10327959;28;922;-75
2023/11/12 15:46:43;;;;;;;;;;;;;;;18.30;49.09;98826.66;10326936;28;1895;-75
2023/11/12 15:51:39;;;;;;;;;;;;;;;18.27;49.37;98832.13;10326409;28;810;-75
2023/11/12 15:56:35;;;;;;;;;;;;;;;18.28;49.12;98836.44;10326000;28;872;-75
2023/11/12 16:01:33;;;;;;;;;;;;;;;18.31;49.15;98841.53;10326540;28;818;-75
2023/11/12 16:06:31;;;;;;;;;;;;;;;18.28;49.24;98844.34;10326093;28;1958;-75
2023/11/12 16:11:27;;;;;;;;;;;;;;;18.27;49.51;98838.25;10326255;28;958;-75
2023/11/12 16:16:23;;;;;;;;;;;;;;;18.30;49.21;98842.47;10326307;28;818;-76
2023/11/12 16:21:19;;;;;;;;;;;;;;;18.28;49.35;98844.34;10325922;28;794;-75
2023/11/12 16:26:15;;;;;;;;;;;;;;;18.25;49.53;98849.81;10326005;28;1889;-75
2023/11/12 16:31:11;;;;;;;;;;;;;;;18.27;49.37;98850.59;10326052;28;1270;-76
2023/11/12 16:36:07;;;;;;;;;;;;;;;18.31;49.38;98854.72;10326394;28;849;-75
2023/11/12 16:41:03;;;;;;;;;;;;;;;18.29;49.36;98867.19;10325604;28;997;-75
2023/11/12 16:45:59;;;;;;;;;;;;;;;18.28;49.38;98876.00;10325456;28;1919;-75
2023/11/12 16:50:55;;;;;;;;;;;;;;;18.31;49.25;98873.19;10325615;28;777;-76
2023/11/12 16:55:51;;;;;;;;;;;;;;;18.28;49.38;98883.94;10325403;28;847;-76
2023/11/12 17:00:48;;;;;;;;;;;;;;;18.31;49.29;98889.88;10325264;28;788;-75
2023/11/12 17:05:44;;;;;;;;;;;;;;;18.36;49.08;98881.69;10325102;28;1906;-75
2023/11/12 17:10:40;;;;;;;;;;;;;;;18.34;49.42;98888.88;10328236;28;746;-73
2023/11/12 17:15:36;;;;;;;;;;;;;;;18.31;49.33;98891.66;10333973;28;856;-75
2023/11/12 17:20:32;;;;;;;;;;;;;;;18.32;49.47;98886.31;10333216;28;771;-75
2023/11/12 17:25:28;;;;;;;;;;;;;;;18.35;49.25;98898.47;10333738;28;889;-75
2023/11/12 17:30:24;;;;;;;;;;;;;;;18.33;49.36;98885.34;10331931;28;1956;-74
2023/11/12 17:35:19;;;;;;;;;;;;;;;18.34;49.37;98886.22;10332645;28;794;-75
2023/11/12 17:40:16;;;;;;;;;;;;;;;18.35;49.36;98882.63;10332452;28;851;-75
2023/11/12 17:45:12;;;;;;;;;;;;;;;18.36;49.17;98894.88;10332812;28;842;-74
2023/11/12 17:50:08;;;;;;;;;;;;;;;18.35;49.21;98903.75;10332549;28;1901;-74
2023/11/12 17:55:04;;;;;;;;;;;;;;;18.38;49.13;98900.91;10331903;28;925;-75
2023/11/12 18:00:00;;;;;;;;;;;;;;;18.38;49.16;98906.19;10332237;28;764;-74
2023/11/12 18:04:56;;;;;;;;;;;;;;;18.35;49.12;98909.00;10332249;28;887;-75
2023/11/12 18:09:51;;;;;;;;;;;;;;;18.36;49.10;98901.00;10331186;28;1890;-75
2023/11/12 18:14:47;;;;;;;;;;;;;;;18.39;49.21;98906.13;10331675;28;857;-74
2023/11/12 18:19:43;;;;;;;;;;;;;;;18.38;49.15;98900.91;10332140;28;837;-74
2023/11/12 18:24:39;;;;;;;;;;;;;;;18.36;49.24;98901.00;10328934;28;844;-74
2023/11/12 18:29:35;;;;;;;;;;;;;;;18.37;49.09;98915.91;10330891;28;1885;-71
2023/11/12 18:34:32;;;;;;;;;;;;;;;18.29;49.43;98928.69;10329830;28;866;-74
2023/11/12 18:39:28;;;;;;;;;;;;;;;18.35;48.86;98925.69;10330191;28;1568;-74
2023/11/12 18:44:23;;;;;;;;;;;;;;;18.39;48.95;98928.97;10330667;28;921;-75
2023/11/12 18:49:19;;;;;;;;;;;;;;;18.42;48.94;98938.50;10330340;28;1977;-75
2023/11/12 18:54:16;;;;;;;;;;;;;;;18.40;48.86;98949.16;10329639;28;840;-75
2023/11/12 18:59:12;;;;;;;;;;;;;;;18.40;48.84;98960.56;10329453;28;790;-74
2023/11/12 19:04:08;;;;;;;;;;;;;;;18.41;48.92;98958.78;10329803;28;888;-75
2023/11/12 19:09:04;;;;;;;;;;;;;;;18.40;48.80;98963.22;10329630;28;1902;-75
2023/11/12 19:14:04;;;;;;;;;;;;;;;18.43;48.87;98974.53;10329536;28;874;-75
2023/11/12 19:19:01;;;;;;;;;;;;;;;18.43;48.89;98988.56;10328625;28;1649;-74
2023/11/12 19:23:58;;;;;;;;;;;;;;;18.44;48.90;98986.78;10329059;28;841;-74
2023/11/12 19:28:53;;;;;;;;;;;;;;;18.43;48.76;98964.81;10327989;28;1894;-74
2023/11/12 19:33:49;;;;;;;;;;;;;;;18.46;48.86;98962.00;10327916;28;790;-74
2023/11/12 19:38:45;;;;;;;;;;;;;;;18.44;48.93;98949.84;10328370;28;862;-75
2023/11/12 19:43:41;;;;;;;;;;;;;;;18.43;48.92;98925.25;10329223;28;789;-74
2023/11/12 19:48:37;;;;;;;;;;;;;;;18.45;48.85;98926.00;10327401;28;1967;-74
2023/11/12 19:53:33;;;;;;;;;;;;;;;18.45;48.89;98935.72;10327765;28;826;-75
2023/11/12 19:58:29;;;;;;;;;;;;;;;18.39;48.98;98944.81;10327681;28;846;-77
2023/11/12 20:03:25;;;;;;;;;;;;;;;18.36;49.04;98942.38;10327718;28;795;-77
2023/11/12 20:08:22;;;;;;;;;;;;;;;18.38;48.75;98943.13;10326623;28;1898;-75
2023/11/12 20:13:18;;;;;;;;;;;;;;;18.40;48.67;98935.97;10325922;28;799;-75
2023/11/12 20:18:14;;;;;;;;;;;;;;;18.42;48.75;98949.94;10326368;28;768;-75
2023/11/12 20:23:10;;;;;;;;;;;;;;;18.41;48.90;98966.69;10326173;28;877;-75
2023/11/12 20:28:13;;;;;;;;;;;;;;;18.45;48.75;98980.56;10325994;28;1957;-74
2023/11/12 20:33:09;;;;;;;;;;;;;;;18.40;48.85;98986.94;10326261;28;1126;-75
2023/11/12 20:38:06;;;;;;;;;;;;;;;18.40;48.75;98983.47;10325777;28;782;-75
2023/11/12 20:43:02;;;;;;;;;;;;;;;18.39;48.66;98979.13;10325641;28;944;-75
2023/11/12 20:48:00;;;;;;;;;;;;;;;18.38;49.11;98972.16;10324791;28;1917;-75
2023/11/12 20:52:56;;;;;;;;;;;;;;;18.36;48.65;98988.06;10325429;28;879;-75
2023/11/12 20:57:52;;;;;;;;;;;;;;;18.31;49.08;98987.50;10325974;28;826;-75
2023/11/12 21:02:48;;;;;;;;;;;;;;;18.31;48.80;98994.53;10325858;28;872;-75
2023/11/12 21:07:45;;;;;;;;;;;;;;;18.28;48.94;99010.56;10325845;28;1898;-75
2023/11/12 21:12:41;;;;;;;;;;;;;;;18.25;49.03;98992.25;10325746;28;871;-75
2023/11/12 21:17:37;;;;;;;;;;;;;;;18.23;49.04;98989.69;10325663;28;803;-75
2023/11/12 21:22:36;;;;;;;;;;;;;;;18.24;48.87;98980.03;10325906;28;842;-75
2023/11/12 21:27:32;;;;;;;;;;;;;;;18.21;49.22;98980.16;10325291;28;1949;-75
2023/11/12 21:32:27;;;;;;;;;;;;;;;18.18;49.09;98982.06;10324029;28;1148;-74
2023/11/12 21:37:23;;;;;;;;;;;;;;;18.15;49.09;98976.94;10325965;28;884;-75
2023/11/12 21:42:19;;;;;;;;;;;;;;;18.13;49.16;98951.59;10325129;28;883;-75
2023/11/12 21:47:15;;;;;;;;;;;;;;;18.10;49.25;98975.50;10324802;28;1917;-75
2023/11/12 21:52:12;;;;;;;;;;;;;;;18.10;49.42;98986.94;10324423;28;1104;-75
2023/11/12 21:57:08;;;;;;;;;;;;;;;18.08;49.39;98990.59;10327039;28;933;-75
2023/11/12 22:02:04;;;;;;;;;;;;;;;18.04;49.27;98995.19;10332385;28;836;-75
2023/11/12 22:07:01;;;;;;;;;;;;;;;18.01;49.27;98971.63;10332048;28;1976;-75
2023/11/12 22:11:57;;;;;;;;;;;;;;;17.97;49.30;98946.34;10331270;28;777;-75
2023/11/12 22:16:53;;;;;;;;;;;;;;;17.96;49.45;98942.03;10331997;28;984;-75
2023/11/12 22:21:49;;;;;;;;;;;;;;;17.97;49.50;98954.25;10330937;28;866;-75
2023/11/12 22:26:44;;;;;;;;;;;;;;;17.95;49.65;98967.53;10330707;28;1898;-75
2023/11/12 22:31:40;;;;;;;;;;;;;;;17.95;49.61;98985.16;10331393;28;1163;-75
2023/11/12 22:36:36;;;;;;;;;;;;;;;17.91;49.68;98999.44;10329822;28;890;-75
2023/11/12 22:41:32;;;;;;;;;;;;;;;17.87;49.57;99019.00;10330217;28;874;-75
2023/11/12 22:46:28;;;;;;;;;;;;;;;17.88;49.74;99031.25;10329934;28;1906;-75
2023/11/12 22:51:27;;;;;;;;;;;;;;;17.88;49.74;99023.34;10329756;28;957;-75
2023/11/12 22:56:24;;;;;;;;;;;;;;;17.86;49.74;99051.56;10329653;28;889;-75
2023/11/12 23:01:20;;;;;;;;;;;;;;;17.83;49.74;99028.84;10329493;28;783;-75
2023/11/12 23:06:17;;;;;;;;;;;;;;;17.82;49.72;99011.34;10328596;28;1901;-75
2023/11/12 23:11:13;;;;;;;;;;;;;;;17.82;49.61;98990.25;10328244;28;977;-75
2023/11/12 23:16:10;;;;;;;;;;;;;;;17.81;49.72;98982.44;10329525;28;794;-75
2023/11/12 23:21:06;;;;;;;;;;;;;;;17.80;49.81;98986.00;10328750;28;871;-75
2023/11/12 23:26:03;;;;;;;;;;;;;;;17.78;49.80;99006.28;10328340;28;1959;-75
2023/11/12 23:31:01;;;;;;;;;;;;;;;17.78;49.77;98986.06;10328568;28;1117;-75
2023/11/12 23:35:58;;;;;;;;;;;;;;;17.77;49.71;98971.19;10328041;28;870;-75
2023/11/12 23:40:54;;;;;;;;;;;;;;;17.75;49.58;98975.69;10327996;28;845;-75
2023/11/12 23:45:50;;;;;;;;;;;;;;;17.73;49.90;98975.75;10326955;28;1914;-75
2023/11/12 23:50:46;;;;;;;;;;;;;;;17.73;49.72;98952.03;10327388;28;880;-76
2023/11/12 23:55:42;;;;;;;;;;;;;;;17.72;49.70;98952.97;10327250;28;862;-75
